Time;durP1;ratioP1;P1;durP2;ratioP2;P2;SDS_P1;SDS_P2;PMS_P1;PMS_P2;Temp;Humidity;BMP_temperature;BMP_pressure;BME280_temperature;BME280_humidity;BME280_pressure;Samples;Min_cycle;Max_cycle;Signal;HPM_P1;HPM_P2
2023/04/05 00:00:58;;;;;;;11.60;6.68;;;4.20;99.90;;;;;;4973937;28;20045;-75
2023/04/05 00:03:24;;;;;;;10.32;5.85;;;4.20;99.90;;;;;;4973588;28;20088;-74
2023/04/05 00:05:53;;;;;;;12.50;6.20;;;4.10;99.90;;;;;;4975384;28;20041;-75
2023/04/05 00:08:22;;;;;;;11.15;5.90;;;4.10;99.90;;;;;;4959443;28;20030;-74
2023/04/05 00:10:49;;;;;;;13.38;6.15;;;4.10;99.90;;;;;;4980761;28;20030;-75
2023/04/05 00:13:15;;;;;;;13.50;6.50;;;4.00;99.90;;;;;;4992642;28;20041;-75
2023/04/05 00:15:41;;;;;;;15.98;6.35;;;4.00;99.90;;;;;;4993828;28;20117;-74
2023/04/05 00:18:07;;;;;;;12.48;6.25;;;4.00;99.90;;;;;;4961575;28;20122;-74
2023/04/05 00:20:36;;;;;;;14.50;6.65;;;4.00;99.90;;;;;;4996078;28;20030;-74
2023/04/05 00:23:02;;;;;;;14.43;6.28;;;3.80;99.90;;;;;;4959181;28;20038;-74
2023/04/05 00:25:27;;;;;;;13.50;6.10;;;3.90;99.90;;;;;;4958555;28;20515;-75
2023/04/05 00:27:53;;;;;;;13.35;6.78;;;3.80;99.90;;;;;;4974285;28;20497;-75
2023/04/05 00:30:21;;;;;;;13.25;6.60;;;3.80;99.90;;;;;;4957769;28;20038;-74
2023/04/05 00:32:48;;;;;;;12.27;6.20;;;3.70;99.90;;;;;;4957101;28;20034;-75
2023/04/05 00:35:14;;;;;;;16.10;6.10;;;3.70;99.90;;;;;;4976845;28;20449;-75
2023/04/05 00:37:40;;;;;;;11.73;6.45;;;3.70;99.90;;;;;;4976553;28;20070;-75
2023/04/05 00:40:06;;;;;;;11.50;6.00;;;3.70;99.90;;;;;;4975162;28;20518;-75
2023/04/05 00:42:32;;;;;;;16.63;6.93;;;3.70;99.90;;;;;;4955711;28;20415;-75
2023/04/05 00:44:57;;;;;;;12.60;6.55;;;3.60;99.90;;;;;;4983298;28;20034;-75
2023/04/05 00:47:23;;;;;;;13.45;6.63;;;3.60;99.90;;;;;;4977099;28;20041;-75
2023/04/05 00:49:49;;;;;;;14.10;6.15;;;3.50;99.90;;;;;;4966808;28;20245;-75
2023/04/05 00:52:16;;;;;;;13.85;6.55;;;3.40;99.90;;;;;;4956959;28;20034;-75
2023/04/05 00:54:43;;;;;;;12.98;6.38;;;3.30;99.90;;;;;;4956811;28;20573;-75
2023/04/05 00:57:09;;;;;;;12.75;5.93;;;3.40;99.90;;;;;;4957936;28;20038;-75
2023/04/05 00:59:35;;;;;;;13.95;6.97;;;3.40;99.90;;;;;;4991618;28;20475;-75
2023/04/05 01:02:31;;;;;;;14.63;7.05;;;3.20;99.90;;;;;;4973915;28;20038;-75
2023/04/05 01:05:23;;;;;;;12.55;6.70;;;3.30;99.90;;;;;;4971399;28;20041;-75
2023/04/05 01:08:12;;;;;;;13.35;6.32;;;3.20;99.90;;;;;;4958072;28;20506;-75
2023/04/05 01:10:41;;;;;;;12.57;6.80;;;3.20;99.90;;;;;;4960756;28;20406;-75
2023/04/05 01:13:07;;;;;;;12.30;6.18;;;3.20;99.90;;;;;;4961438;28;20081;-75
2023/04/05 01:15:33;;;;;;;12.98;6.78;;;3.20;99.90;;;;;;4973839;28;20046;-75
2023/04/05 01:18:01;;;;;;;11.65;6.45;;;3.20;99.90;;;;;;4962504;28;20054;-75
2023/04/05 01:20:33;;;;;;;12.80;6.82;;;4.50;99.90;;;;;;4993208;28;20049;-74
2023/04/05 01:22:58;;;;;;;12.90;6.60;;;3.10;99.90;;;;;;4938130;28;20069;-75
2023/04/05 01:26:02;;;;;;;14.32;6.65;;;2.40;99.90;;;;;;4977808;28;20034;-74
2023/04/05 01:28:57;;;;;;;11.07;5.95;;;3.10;99.90;;;;;;4975406;28;20113;-75
2023/04/05 01:31:23;;;;;;;12.18;7.00;;;3.10;99.90;;;;;;4953441;28;20515;-74
2023/04/05 01:34:22;;;;;;;13.65;6.80;;;3.00;99.90;;;;;;4960888;28;20042;-74
2023/04/05 01:37:04;;;;;;;11.75;6.35;;;3.00;99.90;;;;;;4965098;28;20047;-75
2023/04/05 01:39:30;;;;;;;13.40;7.43;;;3.00;99.90;;;;;;4977627;28;20410;-74
2023/04/05 01:42:00;;;;;;;11.60;6.10;;;2.80;99.90;;;;;;4961329;28;20034;-74
2023/04/05 01:44:26;;;;;;;13.75;6.90;;;2.90;99.90;;;;;;4981878;28;20034;-74
2023/04/05 01:46:51;;;;;;;14.82;6.95;;;2.90;99.90;;;;;;4981953;28;20411;-74
2023/04/05 01:49:17;;;;;;;15.63;6.90;;;2.90;99.90;;;;;;4960928;28;20034;-75
2023/04/05 01:51:42;;;;;;;13.13;6.90;;;2.90;99.90;;;;;;4994487;28;20217;-74
2023/04/05 01:54:08;;;;;;;15.65;6.57;;;2.90;99.90;;;;;;4976817;28;20514;-74
2023/04/05 01:56:34;;;;;;;12.45;6.95;;;2.80;99.90;;;;;;4994023;28;20108;-74
2023/04/05 01:58:59;;;;;;;12.63;6.72;;;2.70;99.90;;;;;;4979048;28;20034;-74
2023/04/05 02:01:25;;;;;;;13.82;6.93;;;2.90;99.90;;;;;;4963987;28;20038;-75
2023/04/05 02:03:51;;;;;;;15.77;6.88;;;2.70;99.90;;;;;;4976942;28;20048;-74
2023/04/05 02:06:16;;;;;;;12.60;6.90;;;2.80;99.90;;;;;;4966502;28;20043;-75
2023/04/05 02:08:42;;;;;;;12.63;6.70;;;2.70;99.90;;;;;;4979403;28;20116;-75
2023/04/05 02:11:07;;;;;;;11.80;6.65;;;2.70;99.90;;;;;;4991203;28;20396;-74
2023/04/05 02:13:33;;;;;;;14.13;6.50;;;2.60;99.90;;;;;;4961021;28;20050;-74
2023/04/05 02:15:58;;;;;;;14.63;7.10;;;2.60;99.90;;;;;;4976400;28;20077;-74
2023/04/05 02:18:28;;;;;;;15.05;6.85;;;2.60;99.90;;;;;;4983062;28;20038;-74
2023/04/05 02:21:03;;;;;;;14.38;7.13;;;2.50;99.90;;;;;;4997185;28;20100;-75
2023/04/05 02:23:29;;;;;;;11.98;6.22;;;2.50;99.90;;;;;;4975574;28;20511;-75
2023/04/05 02:25:56;;;;;;;11.05;6.03;;;2.50;99.90;;;;;;4974480;28;20038;-75
2023/04/05 02:28:21;;;;;;;13.18;6.45;;;3.40;99.90;;;;;;4995280;28;20030;-75
2023/04/05 02:30:47;;;;;;;12.10;6.72;;;2.40;99.90;;;;;;4994545;28;20084;-75
2023/04/05 02:33:13;;;;;;;12.55;6.47;;;2.40;99.90;;;;;;4975783;28;20043;-75
2023/04/05 02:35:38;;;;;;;10.98;6.45;;;2.30;99.90;;;;;;4993201;28;20053;-75
2023/04/05 02:38:04;;;;;;;13.65;7.00;;;2.30;99.90;;;;;;4960017;28;20038;-74
2023/04/05 02:40:30;;;;;;;11.50;5.93;;;2.20;99.90;;;;;;4956939;28;20046;-74
2023/04/05 02:42:58;;;;;;;10.57;5.70;;;2.20;99.90;;;;;;4967925;28;20042;-75
2023/04/05 02:45:24;;;;;;;11.70;6.25;;;2.10;99.90;;;;;;4969875;28;20042;-74
2023/04/05 02:47:49;;;;;;;14.25;5.90;;;2.00;99.90;;;;;;4959661;28;20200;-74
2023/04/05 02:50:19;;;;;;;14.15;5.80;;;1.90;99.90;;;;;;4975919;28;20034;-74
2023/04/05 02:52:45;;;;;;;14.13;6.47;;;1.80;99.90;;;;;;4976437;28;20047;-74
2023/04/05 02:55:11;;;;;;;15.35;7.03;;;1.90;99.90;;;;;;4975042;28;20061;-74
2023/04/05 02:57:37;;;;;;;15.02;6.78;;;1.90;99.90;;;;;;4991208;28;20090;-75
2023/04/05 03:00:04;;;;;;;14.25;6.53;;;3.20;99.90;;;;;;4969025;28;20169;-75
2023/04/05 03:02:30;;;;;;;13.32;7.15;;;1.90;99.90;;;;;;4971972;28;20572;-75
2023/04/05 03:04:55;;;;;;;13.07;6.88;;;1.80;99.90;;;;;;4976269;28;20049;-75
2023/04/05 03:07:24;;;;;;;14.52;7.28;;;1.90;99.90;;;;;;4956244;28;20395;-75
2023/04/05 03:09:50;;;;;;;12.98;7.13;;;2.00;99.90;;;;;;4973782;28;20141;-75
2023/04/05 03:12:15;;;;;;;13.57;7.63;;;1.90;99.90;;;;;;4990172;23;20137;-78
2023/04/05 03:14:41;;;;;;;13.82;7.28;;;1.90;99.90;;;;;;4955301;28;20516;-76
2023/04/05 03:17:07;;;;;;;13.75;7.55;;;1.90;99.90;;;;;;4955294;28;20458;-74
2023/04/05 03:19:33;;;;;;;14.23;7.22;;;1.90;99.90;;;;;;4956479;28;20113;-75
2023/04/05 03:21:58;;;;;;;15.15;7.97;;;1.90;99.90;;;;;;4972605;28;20510;-80
2023/04/05 03:24:24;;;;;;;14.90;7.93;;;1.80;99.90;;;;;;4956505;28;20141;-76
2023/04/05 03:26:49;;;;;;;13.40;7.55;;;1.80;99.90;;;;;;4955249;28;20523;-74
2023/04/05 03:29:16;;;;;;;14.50;7.18;;;1.80;99.90;;;;;;4972734;28;20078;-75
2023/04/05 03:31:42;;;;;;;14.30;7.43;;;1.80;99.90;;;;;;4954822;28;20107;-75
2023/04/05 03:34:07;;;;;;;15.20;7.53;;;1.90;99.90;;;;;;4955357;28;20030;-75
2023/04/05 03:36:40;;;;;;;15.77;7.90;;;1.90;99.90;;;;;;4954704;28;20388;-75
2023/04/05 03:39:10;;;;;;;15.13;8.13;;;1.90;99.90;;;;;;4953333;28;20039;-75
2023/04/05 03:41:36;;;;;;;14.88;8.13;;;1.90;99.90;;;;;;4954446;28;20039;-75
2023/04/05 03:44:02;;;;;;;16.63;9.07;;;1.90;99.90;;;;;;4955058;28;20039;-75
2023/04/05 03:46:28;;;;;;;13.55;7.68;;;1.90;99.90;;;;;;4954949;28;20059;-75
2023/04/05 03:48:54;;;;;;;15.02;8.15;;;1.90;99.90;;;;;;4955066;28;20525;-74
2023/04/05 03:51:20;;;;;;;16.42;8.20;;;2.00;99.90;;;;;;4955158;28;20045;-75
2023/04/05 03:53:45;;;;;;;15.85;8.02;;;1.90;99.90;;;;;;4955820;28;20046;-75
2023/04/05 03:56:11;;;;;;;15.77;7.88;;;1.90;99.90;;;;;;4960968;28;20562;-76
2023/04/05 03:58:37;;;;;;;15.05;7.88;;;1.90;99.90;;;;;;4955003;28;20042;-76
2023/04/05 04:01:03;;;;;;;15.55;7.78;;;1.90;99.90;;;;;;4938823;28;20202;-76
2023/04/05 04:03:29;;;;;;;14.32;8.00;;;1.90;99.90;;;;;;4954943;28;20086;-76
2023/04/05 04:05:55;;;;;;;15.98;7.97;;;1.90;99.90;;;;;;4954536;28;20054;-75
2023/04/05 04:08:21;;;;;;;16.42;8.20;;;1.90;99.90;;;;;;4950139;28;20089;-77
2023/04/05 04:10:47;;;;;;;16.70;8.38;;;1.90;99.90;;;;;;4962308;28;20117;-75
2023/04/05 04:13:13;;;;;;;14.82;7.85;;;1.80;99.90;;;;;;4954606;28;20047;-75
2023/04/05 04:15:38;;;;;;;17.98;8.63;;;1.90;99.90;;;;;;4954524;28;20054;-75
2023/04/05 04:18:04;;;;;;;16.20;8.52;;;1.80;99.90;;;;;;4954716;28;20049;-75
2023/04/05 04:20:29;;;;;;;15.35;8.57;;;1.80;99.90;;;;;;4954792;28;20517;-77
2023/04/05 04:22:57;;;;;;;17.58;9.02;;;1.80;99.90;;;;;;4953630;28;20086;-75
2023/04/05 04:25:25;;;;;;;18.70;8.80;;;1.80;99.90;;;;;;4954726;28;20043;-75
2023/04/05 04:27:51;;;;;;;16.65;8.52;;;1.80;99.90;;;;;;4957418;28;20039;-75
2023/04/05 04:30:21;;;;;;;15.68;7.90;;;1.80;99.90;;;;;;4965741;28;20487;-77
2023/04/05 04:32:50;;;;;;;16.25;8.43;;;1.70;99.90;;;;;;4954156;28;20134;-80
2023/04/05 04:35:37;;;;;;;20.60;8.90;;;1.70;99.90;;;;;;4949862;28;20039;-77
2023/04/05 04:38:07;;;;;;;15.05;8.70;;;1.60;99.90;;;;;;4946333;28;20046;-77
2023/04/05 04:40:37;;;;;;;17.00;8.50;;;1.60;99.90;;;;;;4953341;28;20074;-75
2023/04/05 04:43:15;;;;;;;15.13;7.50;;;1.60;99.90;;;;;;4953055;28;20078;-76
2023/04/05 04:45:45;;;;;;;18.23;7.97;;;1.50;99.90;;;;;;4937498;28;20126;-75
2023/04/05 04:48:12;;;;;;;17.10;7.55;;;1.50;99.90;;;;;;4956397;28;20049;-75
2023/04/05 04:50:38;;;;;;;15.05;8.50;;;1.40;99.90;;;;;;4955917;28;20443;-74
2023/04/05 04:53:04;;;;;;;17.90;8.75;;;1.40;99.90;;;;;;4957492;28;20495;-76
2023/04/05 04:55:32;;;;;;;17.10;8.63;;;1.40;99.90;;;;;;4957495;28;20046;-75
2023/04/05 04:57:58;;;;;;;18.35;9.60;;;1.40;99.90;;;;;;4950674;28;20118;-75
2023/04/05 05:00:24;;;;;;;18.90;8.93;;;1.40;99.90;;;;;;4956003;28;20120;-74
2023/04/05 05:02:55;;;;;;;18.83;9.43;;;1.40;99.90;;;;;;4951377;28;20102;-74
2023/04/05 05:05:21;;;;;;;18.40;8.80;;;1.40;99.90;;;;;;4952127;28;20393;-74
2023/04/05 05:07:47;;;;;;;19.10;10.23;;;1.40;99.90;;;;;;4953629;28;20439;-75
2023/04/05 05:10:15;;;;;;;18.42;9.45;;;1.40;99.90;;;;;;4957901;28;20047;-74
2023/04/05 05:12:41;;;;;;;17.02;9.27;;;1.60;99.90;;;;;;4957725;28;20053;-74
2023/04/05 05:15:07;;;;;;;16.75;9.38;;;1.40;99.90;;;;;;4957502;28;20080;-74
2023/04/05 05:17:34;;;;;;;17.73;9.07;;;1.40;99.90;;;;;;4972792;28;20138;-76
2023/04/05 05:20:00;;;;;;;17.58;10.13;;;1.40;99.90;;;;;;4952628;28;20129;-77
2023/04/05 05:22:26;;;;;;;14.88;8.70;;;1.40;99.90;;;;;;4957221;28;20043;-75
2023/04/05 05:24:52;;;;;;;15.13;8.57;;;1.30;99.90;;;;;;4957686;28;20053;-74
2023/04/05 05:27:18;;;;;;;19.17;9.30;;;1.30;99.90;;;;;;4961783;28;20069;-74
2023/04/05 05:29:44;;;;;;;16.15;9.18;;;1.30;99.90;;;;;;4955613;28;20101;-75
2023/04/05 05:32:14;;;;;;;17.00;8.82;;;1.30;99.90;;;;;;4951671;28;20038;-74
2023/04/05 05:34:40;;;;;;;18.45;9.80;;;1.30;99.90;;;;;;4949407;28;20046;-74
2023/04/05 05:37:08;;;;;;;20.67;9.73;;;1.30;99.90;;;;;;4955328;28;20047;-75
2023/04/05 05:39:35;;;;;;;19.00;9.88;;;1.30;99.90;;;;;;4951107;28;20496;-75
2023/04/05 05:42:02;;;;;;;17.88;9.52;;;1.30;99.90;;;;;;4966254;28;20047;-75
2023/04/05 05:44:28;;;;;;;22.90;10.07;;;1.60;99.90;;;;;;4970485;28;20134;-76
2023/04/05 05:46:53;;;;;;;17.60;9.15;;;1.50;99.90;;;;;;4970361;28;20398;-74
2023/04/05 05:49:19;;;;;;;16.90;8.90;;;1.50;99.90;;;;;;4951277;28;20039;-74
2023/04/05 05:51:45;;;;;;;18.63;8.80;;;1.30;99.90;;;;;;4964442;28;20128;-75
2023/04/05 05:54:10;;;;;;;18.40;8.82;;;1.40;99.90;;;;;;4950659;28;20035;-74
2023/04/05 05:56:36;;;;;;;18.92;8.95;;;1.30;99.90;;;;;;4952866;28;20100;-74
2023/04/05 05:59:01;;;;;;;16.90;9.15;;;1.30;99.90;;;;;;4970761;28;20078;-74
2023/04/05 06:01:28;;;;;;;20.60;9.88;;;1.30;99.90;;;;;;4953046;28;20126;-74
2023/04/05 06:03:54;;;;;;;16.90;8.98;;;1.40;99.90;;;;;;4955563;28;20055;-74
2023/04/05 06:06:20;;;;;;;17.33;9.52;;;1.40;99.90;;;;;;4956887;28;20085;-74
2023/04/05 06:08:46;;;;;;;22.98;10.18;;;1.40;99.90;;;;;;4956054;28;20046;-74
2023/04/05 06:11:18;;;;;;;19.02;10.20;;;1.40;99.90;;;;;;4954472;28;20098;-74
2023/04/05 06:13:44;;;;;;;19.80;10.15;;;1.50;99.90;;;;;;4972715;28;20101;-74
2023/04/05 06:16:10;;;;;;;22.40;10.23;;;1.40;99.90;;;;;;4977779;28;20043;-74
2023/04/05 06:18:35;;;;;;;18.67;9.85;;;1.60;99.90;;;;;;4963233;28;20046;-75
2023/04/05 06:21:01;;;;;;;17.15;10.30;;;1.50;99.90;;;;;;4953412;28;20046;-75
2023/04/05 06:23:27;;;;;;;22.92;11.10;;;1.50;99.90;;;;;;4954658;28;20042;-74
2023/04/05 06:25:53;;;;;;;17.05;10.45;;;1.50;99.90;;;;;;4973768;28;20031;-74
2023/04/05 06:28:18;;;;;;;21.25;10.80;;;1.60;99.90;;;;;;4973415;28;20501;-74
2023/04/05 06:30:44;;;;;;;23.17;11.30;;;1.60;99.90;;;;;;4950312;28;20110;-74
2023/04/05 06:33:10;;;;;;;19.20;10.63;;;1.60;99.90;;;;;;4955978;28;20569;-74
2023/04/05 06:35:35;;;;;;;19.08;10.77;;;1.60;99.90;;;;;;4949103;28;20070;-74
2023/04/05 06:38:01;;;;;;;18.88;11.23;;;1.70;99.90;;;;;;4970325;28;20039;-74
2023/04/05 06:40:26;;;;;;;22.05;11.10;;;1.70;99.90;;;;;;4956488;28;20046;-74
2023/04/05 06:42:52;;;;;;;21.48;11.40;;;1.70;99.90;;;;;;4954397;28;20039;-78
2023/04/05 06:45:18;;;;;;;21.02;11.23;;;1.80;99.90;;;;;;4935556;29;20090;-74
2023/04/05 06:47:44;;;;;;;23.30;11.45;;;1.80;99.90;;;;;;4954397;28;20126;-74
2023/04/05 06:50:10;;;;;;;22.70;11.20;;;1.80;99.90;;;;;;4967458;28;20118;-75
2023/04/05 06:52:35;;;;;;;22.20;12.50;;;1.80;99.90;;;;;;4946794;28;20083;-75
2023/04/05 06:55:01;;;;;;;24.15;12.23;;;1.90;99.90;;;;;;4952484;28;20046;-76
2023/04/05 06:57:27;;;;;;;23.80;12.35;;;1.90;99.90;;;;;;4948104;28;20045;-75
2023/04/05 06:59:53;;;;;;;21.95;11.63;;;2.00;99.90;;;;;;4956244;28;20450;-74
2023/04/05 07:02:20;;;;;;;21.48;12.15;;;2.00;99.90;;;;;;4951707;28;20054;-75
2023/04/05 07:04:46;;;;;;;22.23;11.82;;;2.10;99.90;;;;;;4953968;28;20094;-74
2023/04/05 07:07:12;;;;;;;22.67;12.48;;;2.10;99.90;;;;;;4957105;28;20440;-74
2023/04/05 07:09:38;;;;;;;20.63;12.18;;;2.20;99.90;;;;;;4953109;28;20093;-75
2023/04/05 07:12:07;;;;;;;20.95;11.75;;;2.20;99.90;;;;;;4955934;28;20042;-74
2023/04/05 07:14:35;;;;;;;21.73;12.20;;;2.30;99.90;;;;;;4960019;28;20141;-75
2023/04/05 07:17:01;;;;;;;20.73;11.98;;;2.40;99.90;;;;;;4961698;28;20546;-75
2023/04/05 07:19:27;;;;;;;21.50;11.88;;;2.40;99.90;;;;;;4952873;28;20114;-78
2023/04/05 07:21:52;;;;;;;19.92;11.85;;;2.50;99.90;;;;;;4937375;28;20134;-75
2023/04/05 07:24:18;;;;;;;19.98;11.50;;;2.50;99.90;;;;;;4948845;28;20035;-75
2023/04/05 07:26:44;;;;;;;22.65;11.27;;;2.60;99.90;;;;;;4951038;28;20508;-75
2023/04/05 07:29:10;;;;;;;18.00;11.57;;;2.60;99.90;;;;;;4971631;28;20121;-75
2023/04/05 07:31:38;;;;;;;19.15;12.05;;;2.70;99.90;;;;;;4951364;28;20049;-75
2023/04/05 07:34:06;;;;;;;18.95;11.10;;;2.70;99.90;;;;;;4953362;28;20041;-75
2023/04/05 07:36:32;;;;;;;19.60;11.18;;;2.70;99.90;;;;;;4952950;28;20050;-74
2023/04/05 07:38:58;;;;;;;17.75;10.95;;;2.80;99.90;;;;;;4965371;28;20035;-75
2023/04/05 07:41:25;;;;;;;16.42;10.68;;;3.00;99.90;;;;;;4952543;28;20494;-75
2023/04/05 07:43:51;;;;;;;17.25;10.27;;;2.90;99.90;;;;;;4947785;28;20051;-74
2023/04/05 07:46:16;;;;;;;20.25;11.20;;;2.90;99.90;;;;;;4954676;28;20037;-75
2023/04/05 07:48:42;;;;;;;17.23;11.15;;;2.90;99.90;;;;;;4952400;28;20066;-75
2023/04/05 07:51:08;;;;;;;17.55;10.50;;;3.00;99.90;;;;;;4953333;28;20091;-74
2023/04/05 07:53:35;;;;;;;20.08;10.80;;;3.00;99.90;;;;;;4951845;28;20475;-75
2023/04/05 07:56:09;;;;;;;17.92;10.65;;;3.10;99.90;;;;;;4953180;28;20066;-74
2023/04/05 07:58:35;;;;;;;19.17;10.73;;;3.20;99.90;;;;;;4953843;28;20046;-74
2023/04/05 08:01:01;;;;;;;18.40;10.93;;;3.20;99.90;;;;;;4954868;28;20050;-76
2023/04/05 08:03:28;;;;;;;18.13;10.60;;;3.40;99.90;;;;;;4951471;28;20487;-75
2023/04/05 08:05:53;;;;;;;18.38;10.65;;;3.30;99.90;;;;;;4953240;28;20038;-74
2023/04/05 08:08:19;;;;;;;17.10;10.30;;;3.30;99.90;;;;;;4954772;28;20034;-75
2023/04/05 08:10:45;;;;;;;17.88;10.60;;;3.40;99.90;;;;;;4946002;28;20050;-74
2023/04/05 08:13:11;;;;;;;17.13;10.52;;;3.50;99.90;;;;;;4971746;28;20388;-75
2023/04/05 08:15:36;;;;;;;16.95;10.10;;;3.60;99.90;;;;;;4971967;28;20145;-74
2023/04/05 08:18:02;;;;;;;16.58;10.07;;;3.60;99.90;;;;;;4954191;28;20046;-74
2023/04/05 08:20:27;;;;;;;15.98;10.20;;;3.70;99.90;;;;;;4954984;28;20047;-74
2023/04/05 08:22:53;;;;;;;15.90;10.45;;;3.80;99.90;;;;;;4974775;28;20046;-75
2023/04/05 08:25:18;;;;;;;18.77;10.85;;;3.80;99.90;;;;;;4958560;28;20039;-74
2023/04/05 08:27:44;;;;;;;18.40;9.95;;;3.90;99.90;;;;;;4958923;28;20487;-74
2023/04/05 08:30:10;;;;;;;18.85;9.88;;;3.90;99.90;;;;;;4963718;28;20606;-74
2023/04/05 08:32:36;;;;;;;21.38;10.40;;;4.10;99.90;;;;;;4957640;28;20419;-74
2023/04/05 08:35:01;;;;;;;17.20;10.20;;;4.20;99.90;;;;;;4942194;28;20038;-75
2023/04/05 08:37:27;;;;;;;16.48;8.90;;;4.20;99.90;;;;;;4958638;28;20155;-74
2023/04/05 08:39:52;;;;;;;14.75;8.20;;;4.30;99.90;;;;;;4950972;28;20058;-74
2023/04/05 08:42:27;;;;;;;13.43;7.20;;;4.40;99.90;;;;;;4951339;28;20043;-74
2023/04/05 08:44:56;;;;;;;12.68;8.10;;;4.50;99.90;;;;;;4953918;28;20043;-74
2023/04/05 08:47:22;;;;;;;11.77;7.35;;;4.70;99.90;;;;;;4956802;28;20499;-76
2023/04/05 08:49:48;;;;;;;10.80;6.25;;;4.70;99.90;;;;;;4957914;28;20054;-75
2023/04/05 08:52:14;;;;;;;10.73;6.32;;;4.80;99.90;;;;;;4939248;28;20055;-76
2023/04/05 08:54:40;;;;;;;12.18;6.32;;;4.90;99.90;;;;;;4957150;28;20038;-74
2023/04/05 08:57:09;;;;;;;10.40;5.43;;;5.00;99.90;;;;;;4957630;28;20122;-74
2023/04/05 08:59:40;;;;;;;11.02;5.43;;;5.10;99.90;;;;;;4958339;28;20121;-74
2023/04/05 09:02:15;;;;;;;11.55;5.50;;;5.20;99.90;;;;;;4956849;28;20042;-74
2023/04/05 09:04:45;;;;;;;10.57;5.40;;;5.30;99.90;;;;;;4959578;28;20043;-75
2023/04/05 09:07:12;;;;;;;10.95;5.72;;;5.50;99.90;;;;;;4957413;28;20550;-74
2023/04/05 09:09:40;;;;;;;14.57;5.30;;;5.60;99.90;;;;;;4958166;28;20098;-74
2023/04/05 09:12:07;;;;;;;10.23;5.40;;;5.80;99.90;;;;;;4986081;22;20021;-73
2023/04/05 09:14:33;;;;;;;9.80;5.65;;;5.90;99.90;;;;;;4980820;28;20509;-72
2023/04/05 09:17:02;;;;;;;20.08;5.45;;;6.20;99.90;;;;;;4964723;28;20025;-73
2023/04/05 09:19:27;;;;;;;11.10;5.63;;;6.40;99.90;;;;;;4998118;28;20049;-73
2023/04/05 09:22:01;;;;;;;11.05;5.68;;;6.70;99.90;;;;;;4978250;28;20121;-73
2023/04/05 09:24:31;;;;;;;12.35;5.72;;;6.90;99.90;;;;;;4974962;28;20034;-73
2023/04/05 09:27:07;;;;;;;10.63;5.32;;;7.10;99.90;;;;;;4970710;28;20088;-73
2023/04/05 09:29:32;;;;;;;10.05;5.45;;;7.30;99.90;;;;;;4978470;28;20054;-73
2023/04/05 09:32:01;;;;;;;11.32;4.35;;;7.50;99.90;;;;;;4978536;28;20486;-73
2023/04/05 09:34:26;;;;;;;8.65;4.82;;;7.70;99.90;;;;;;4982536;28;20097;-73
2023/04/05 09:36:52;;;;;;;8.73;4.47;;;7.90;99.90;;;;;;4978364;28;20106;-73
2023/04/05 09:39:26;;;;;;;6.68;4.30;;;8.10;99.90;;;;;;4979156;28;20049;-73
2023/04/05 09:42:05;;;;;;;9.57;4.78;;;8.30;99.90;;;;;;4978065;28;20521;-73
2023/04/05 09:44:51;;;;;;;9.45;4.70;;;8.60;99.70;;;;;;4961660;28;20494;-73
2023/04/05 09:47:18;;;;;;;8.38;4.93;;;8.90;99.70;;;;;;4970762;28;20061;-73
2023/04/05 09:49:43;;;;;;;8.65;4.90;;;9.10;99.90;;;;;;4977566;28;20049;-73
2023/04/05 09:52:25;;;;;;;8.68;5.00;;;9.50;99.00;;;;;;4977763;28;20038;-74
2023/04/05 09:54:55;;;;;;;10.33;5.17;;;9.50;96.90;;;;;;4974878;28;20129;-73
2023/04/05 09:57:22;;;;;;;11.25;5.38;;;9.60;97.70;;;;;;4972684;28;20296;-73
2023/04/05 09:59:48;;;;;;;8.85;4.65;;;9.80;98.00;;;;;;4977579;28;20391;-73
2023/04/05 10:02:15;;;;;;;9.43;4.85;;;9.80;96.70;;;;;;4971915;28;20042;-73
2023/04/05 10:04:42;;;;;;;10.77;5.80;;;10.00;96.70;;;;;;4977330;28;20414;-73
2023/04/05 10:07:10;;;;;;;9.85;5.30;;;10.20;96.90;;;;;;4976860;28;20034;-73
2023/04/05 10:09:36;;;;;;;9.02;5.18;;;10.40;96.00;;;;;;4977085;28;20046;-73
2023/04/05 10:12:03;;;;;;;7.40;4.80;;;10.60;95.40;;;;;;4978498;28;20053;-72
2023/04/05 10:14:29;;;;;;;7.72;4.80;;;10.80;95.20;;;;;;4977154;28;20045;-73
2023/04/05 10:17:08;;;;;;;7.43;5.25;;;11.00;95.10;;;;;;4993150;28;20048;-73
2023/04/05 10:20:05;;;;;;;8.48;5.50;;;11.20;94.60;;;;;;4994468;28;20053;-73
2023/04/05 10:22:53;;;;;;;10.93;5.75;;;11.10;91.40;;;;;;4973533;28;20121;-74
2023/04/05 10:25:28;;;;;;;9.25;5.20;;;11.10;89.30;;;;;;4972152;28;20490;-73
2023/04/05 10:27:56;;;;;;;6.95;4.80;;;11.10;91.00;;;;;;4993817;28;20035;-74
2023/04/05 10:30:26;;;;;;;8.98;5.28;;;11.10;90.20;;;;;;4976605;28;20038;-73
2023/04/05 10:32:58;;;;;;;9.50;6.13;;;11.20;89.90;;;;;;4991715;28;20133;-74
2023/04/05 10:35:32;;;;;;;9.45;5.50;;;11.10;89.60;;;;;;4962334;28;20042;-73
2023/04/05 10:38:07;;;;;;;8.85;4.97;;;11.20;90.00;;;;;;4977672;28;20375;-74
2023/04/05 10:40:34;;;;;;;7.93;5.05;;;11.40;90.30;;;;;;4994594;28;20468;-73
2023/04/05 10:43:02;;;;;;;7.43;4.95;;;11.50;89.00;;;;;;4993042;28;20046;-73
2023/04/05 10:45:27;;;;;;;9.25;5.40;;;11.50;86.20;;;;;;4975331;28;20049;-73
2023/04/05 10:48:35;;;;;;;9.00;5.13;;;11.60;88.50;;;;;;4972231;28;20033;-73
2023/04/05 10:51:02;;;;;;;8.07;5.13;;;11.70;86.10;;;;;;4946153;28;20054;-73
2023/04/05 10:53:30;;;;;;;7.53;5.10;;;12.30;88.70;;;;;;4976617;28;20042;-73
2023/04/05 10:55:57;;;;;;;7.60;5.18;;;11.90;88.30;;;;;;4993705;28;20066;-74
2023/04/05 10:58:24;;;;;;;8.55;5.13;;;12.20;89.70;;;;;;4973017;28;20049;-73
2023/04/05 11:00:51;;;;;;;7.55;4.70;;;12.30;88.90;;;;;;4976538;28;20049;-73
2023/04/05 11:03:48;;;;;;;9.32;4.82;;;12.50;88.50;;;;;;4981451;28;20042;-74
2023/04/05 11:06:18;;;;;;;8.82;5.18;;;12.30;85.10;;;;;;4973402;28;20038;-74
2023/04/05 11:08:45;;;;;;;6.90;4.90;;;12.10;84.90;;;;;;4980898;28;20077;-73
2023/04/05 11:11:15;;;;;;;7.95;4.80;;;12.20;87.60;;;;;;4984274;28;20121;-74
2023/04/05 11:13:55;;;;;;;7.25;4.80;;;12.30;87.60;;;;;;4992644;28;20038;-73
2023/04/05 11:16:22;;;;;;;8.43;5.10;;;12.50;86.10;;;;;;4969549;28;20134;-74
2023/04/05 11:18:50;;;;;;;6.68;4.65;;;12.60;86.60;;;;;;4975117;28;20050;-73
2023/04/05 11:21:24;;;;;;;8.10;5.53;;;12.80;85.70;;;;;;4976669;28;20053;-74
2023/04/05 11:24:02;;;;;;;7.80;5.15;;;12.90;83.10;;;;;;4975576;28;20038;-73
2023/04/05 11:26:47;;;;;;;8.80;5.30;;;13.00;82.20;;;;;;4973799;28;20042;-73
2023/04/05 11:29:14;;;;;;;9.30;5.65;;;13.10;81.90;;;;;;4989234;28;20034;-73
2023/04/05 11:32:05;;;;;;;10.32;5.25;;;13.00;80.20;;;;;;4975736;28;20052;-74
2023/04/05 11:34:35;;;;;;;8.48;4.82;;;13.00;79.20;;;;;;4975729;28;20069;-73
2023/04/05 11:37:00;;;;;;;9.13;5.35;;;13.10;80.90;;;;;;4968343;28;20042;-74
2023/04/05 11:39:27;;;;;;;8.25;4.93;;;13.30;81.60;;;;;;4976158;28;20038;-74
2023/04/05 11:41:58;;;;;;;8.60;5.22;;;13.40;80.80;;;;;;4959013;28;20534;-74
2023/04/05 11:44:24;;;;;;;9.70;5.60;;;13.40;79.60;;;;;;4976428;28;20557;-73
2023/04/05 11:46:52;;;;;;;10.80;5.57;;;13.50;80.00;;;;;;4976236;28;20030;-73
2023/04/05 11:49:21;;;;;;;7.93;4.45;;;13.50;78.90;;;;;;4976613;28;20122;-74
2023/04/05 11:51:49;;;;;;;8.05;5.13;;;13.50;79.70;;;;;;4975755;28;20487;-73
2023/04/05 11:54:27;;;;;;;9.48;5.05;;;13.60;79.90;;;;;;4976887;28;20046;-74
2023/04/05 11:56:53;;;;;;;7.85;4.97;;;13.50;76.40;;;;;;4973067;28;20034;-74
2023/04/05 11:59:18;;;;;;;7.95;4.57;;;13.60;78.00;;;;;;4993189;28;20038;-74
2023/04/05 12:01:44;;;;;;;8.27;4.60;;;13.70;78.50;;;;;;4975067;28;20046;-74
2023/04/05 12:04:13;;;;;;;7.57;5.03;;;13.80;78.00;;;;;;4975235;28;20038;-73
2023/04/05 12:06:38;;;;;;;7.38;4.82;;;13.80;76.30;;;;;;4974938;28;20034;-73
2023/04/05 12:09:06;;;;;;;8.70;5.50;;;13.80;76.70;;;;;;4974975;28;20173;-74
2023/04/05 12:11:31;;;;;;;8.15;4.97;;;13.80;73.70;;;;;;4973827;28;20317;-73
2023/04/05 12:14:01;;;;;;;8.25;5.40;;;13.70;69.90;;;;;;4993035;28;20049;-74
2023/04/05 12:16:27;;;;;;;9.32;5.10;;;13.40;67.70;;;;;;4974508;28;20081;-73
2023/04/05 12:18:57;;;;;;;8.02;5.38;;;13.30;70.20;;;;;;4975183;28;20125;-73
2023/04/05 12:21:24;;;;;;;7.63;4.68;;;13.20;69.70;;;;;;4958816;28;20058;-73
2023/04/05 12:23:50;;;;;;;6.82;4.70;;;13.20;72.10;;;;;;4991910;28;20054;-74
2023/04/05 12:26:16;;;;;;;8.52;4.90;;;13.30;74.20;;;;;;4958040;28;20128;-73
2023/04/05 12:28:56;;;;;;;7.50;4.25;;;13.40;74.20;;;;;;4974861;28;20042;-74
2023/04/05 12:31:44;;;;;;;7.28;4.43;;;13.50;73.40;;;;;;4974986;28;20030;-73
2023/04/05 12:34:11;;;;;;;7.10;5.10;;;13.60;72.60;;;;;;4974816;28;20038;-74
2023/04/05 12:36:38;;;;;;;7.30;5.25;;;13.70;74.90;;;;;;4974179;28;20358;-73
2023/04/05 12:39:06;;;;;;;7.18;4.68;;;13.70;73.40;;;;;;4974630;28;20035;-73
2023/04/05 12:41:32;;;;;;;7.45;4.55;;;13.80;73.20;;;;;;4972445;28;20105;-74
2023/04/05 12:44:04;;;;;;;7.03;4.22;;;13.80;73.10;;;;;;4974454;28;20046;-74
2023/04/05 12:46:47;;;;;;;7.10;4.97;;;13.80;71.60;;;;;;4975949;28;20057;-73
2023/04/05 12:49:17;;;;;;;9.13;5.30;;;13.80;71.00;;;;;;4969294;28;20331;-73
2023/04/05 12:51:45;;;;;;;8.35;5.20;;;13.80;71.80;;;;;;4974276;28;20565;-73